Time;durP1;ratioP1;P1;durP2;ratioP2;P2;SDS_P1;SDS_P2;PMS_P1;PMS_P2;Temp;Humidity;BMP_temperature;BMP_pressure;BME280_temperature;BME280_humidity;BME280_pressure;Samples;Min_cycle;Max_cycle;Signal;HPM_P1;HPM_P2
2021/12/02 00:01:00;;;;;;;1.23;0.70;;;;;;;4.16;77.35;97643.03;4877613;29;20044;-83
2021/12/02 00:03:28;;;;;;;3.10;0.70;;;;;;;4.20;78.41;97638.50;4900187;29;20064;-84
2021/12/02 00:05:55;;;;;;;2.27;1.00;;;;;;;4.17;77.11;97655.16;4896653;29;20040;-82
2021/12/02 00:08:21;;;;;;;1.87;0.77;;;;;;;4.17;77.11;97656.94;4890658;29;20060;-83
2021/12/02 00:10:49;;;;;;;2.20;1.00;;;;;;;4.16;78.24;97668.31;4858364;29;20060;-83
2021/12/02 00:13:22;;;;;;;1.03;0.60;;;;;;;4.20;77.18;97634.16;4858316;29;20041;-85
2021/12/02 00:21:03;;;;;;;0.47;0.47;;;;;;;4.10;75.20;97674.63;4889064;29;20044;-82
2021/12/02 00:23:55;;;;;;;0.63;0.50;;;;;;;4.02;75.29;97681.94;4904895;29;20056;-82
2021/12/02 00:26:26;;;;;;;4.27;0.93;;;;;;;4.00;74.80;97683.75;4897367;29;20044;-83
2021/12/02 00:28:56;;;;;;;4.37;1.03;;;;;;;3.97;73.71;97673.47;4883587;29;20044;-84
2021/12/02 00:31:29;;;;;;;2.40;0.70;;;;;;;3.95;74.69;97644.78;4881172;29;20040;-83
2021/12/02 00:33:59;;;;;;;0.93;0.60;;;;;;;3.94;75.22;97677.03;4879627;29;20059;-84
2021/12/02 00:36:30;;;;;;;1.30;0.50;;;;;;;3.88;74.56;97692.97;4887832;29;20212;-83
2021/12/02 00:38:57;;;;;;;1.87;0.67;;;;;;;3.87;74.21;97678.22;4897379;29;20052;-84
2021/12/02 00:41:28;;;;;;;1.27;0.67;;;;;;;3.87;74.12;97669.53;4887580;29;20048;-84
2021/12/02 00:43:57;;;;;;;1.80;0.47;;;;;;;3.85;74.90;97681.78;4896331;29;20051;-82
2021/12/02 00:46:27;;;;;;;1.30;0.50;;;;;;;3.87;74.47;97708.72;4871993;29;20048;-84
2021/12/02 00:48:57;;;;;;;1.07;0.60;;;;;;;3.84;74.14;97704.44;4891360;29;20052;-84
2021/12/02 00:51:26;;;;;;;2.57;1.00;;;;;;;3.79;74.36;97698.56;4875096;29;20040;-84
2021/12/02 00:54:01;;;;;;;2.70;0.90;;;;;;;3.71;73.59;97708.47;4890688;29;20048;-83
2021/12/02 00:56:38;;;;;;;1.13;0.70;;;;;;;3.73;72.72;97716.25;4871877;29;20043;-85
2021/12/02 00:59:06;;;;;;;2.30;0.60;;;;;;;3.72;73.23;97693.66;4909344;29;20332;-85
2021/12/02 01:01:35;;;;;;;2.83;0.50;;;;;;;3.69;74.63;97728.53;4912146;29;20044;-84
2021/12/02 01:04:10;;;;;;;2.50;0.63;;;;;;;3.64;74.88;97735.72;4885415;29;20045;-84
2021/12/02 01:06:38;;;;;;;1.27;0.70;;;;;;;3.68;75.26;97766.88;4872509;29;20054;-83
2021/12/02 01:09:06;;;;;;;2.30;0.60;;;;;;;3.61;75.34;97733.22;4885036;29;20053;-83
2021/12/02 01:11:33;;;;;;;2.37;0.90;;;;;;;3.55;75.14;97760.44;4910782;29;20048;-84
2021/12/02 01:14:00;;;;;;;0.60;0.50;;;;;;;3.54;75.94;97757.88;4891661;29;20506;-83
2021/12/02 01:16:28;;;;;;;1.33;0.60;;;;;;;3.47;75.98;97785.13;4894455;29;20071;-84
2021/12/02 01:19:00;;;;;;;1.27;0.60;;;;;;;3.48;77.46;97807.72;4860590;29;20060;-84
2021/12/02 01:21:38;;;;;;;1.30;0.73;;;;;;;3.33;84.00;97827.38;4906033;29;20474;-83
2021/12/02 01:24:07;;;;;;;0.67;0.50;;;;;;;2.96;88.42;97830.47;4868493;29;20124;-84
2021/12/02 01:26:34;;;;;;;1.13;0.93;;;;;;;2.69;89.93;97817.50;4863549;29;20044;-83
2021/12/02 01:29:03;;;;;;;0.60;0.53;;;;;;;2.70;91.74;97833.97;4899997;29;20044;-85
2021/12/02 01:31:32;;;;;;;2.73;0.60;;;;;;;2.64;92.11;97832.44;4883312;29;20032;-84
2021/12/02 01:34:01;;;;;;;2.63;0.70;;;;;;;2.72;92.46;97821.75;4900202;29;20071;-84
2021/12/02 01:36:36;;;;;;;2.07;0.60;;;;;;;2.71;91.86;97825.25;4882192;29;20129;-83
2021/12/02 01:39:05;;;;;;;2.00;0.83;;;;;;;2.69;93.08;97838.34;4880734;29;20052;-83
2021/12/02 01:41:38;;;;;;;0.47;0.43;;;;;;;2.64;92.84;97827.22;4883668;29;20048;-84
2021/12/02 01:44:10;;;;;;;1.07;0.73;;;;;;;2.62;90.03;97844.66;4910457;29;20051;-83
2021/12/02 01:46:38;;;;;;;1.90;0.80;;;;;;;2.68;89.40;97847.03;4895680;29;20069;-83
2021/12/02 01:49:05;;;;;;;1.20;1.10;;;;;;;2.67;88.11;97852.31;4867034;29;20041;-84
2021/12/02 01:51:41;;;;;;;0.43;0.43;;;;;;;2.65;89.06;97846.31;4884376;29;20074;-84
2021/12/02 01:54:14;;;;;;;1.97;0.80;;;;;;;2.67;89.87;97855.78;4913524;29;20044;-84
2021/12/02 01:56:51;;;;;;;1.27;0.60;;;;;;;2.67;88.55;97863.59;4893891;29;20049;-83
2021/12/02 01:59:22;;;;;;;1.70;0.70;;;;;;;2.62;90.50;97860.31;4896486;29;20081;-84
2021/12/02 02:01:51;;;;;;;3.77;1.93;;;;;;;2.58;90.14;97858.69;4913350;29;20068;-85
2021/12/02 02:04:21;;;;;;;1.80;0.80;;;;;;;2.64;91.11;97855.03;4900271;29;20048;-84
2021/12/02 02:07:01;;;;;;;3.57;0.90;;;;;;;2.67;90.44;97862.75;4896570;29;20443;-84
2021/12/02 02:09:32;;;;;;;2.83;0.67;;;;;;;2.69;90.64;97847.91;4879653;29;20306;-84
2021/12/02 02:12:03;;;;;;;1.90;0.80;;;;;;;2.71;90.82;97846.13;4889077;29;20024;-83
2021/12/02 02:14:41;;;;;;;2.83;1.10;;;;;;;2.74;89.51;97857.28;4879246;29;20048;-83
2021/12/02 02:19:48;;;;;;;2.93;0.90;;;;;;;2.80;87.55;97857.06;4896676;29;20048;-84
2021/12/02 02:22:20;;;;;;;3.50;1.00;;;;;;;2.81;85.94;97866.59;4873706;29;20364;-84
2021/12/02 02:24:47;;;;;;;2.13;0.80;;;;;;;2.85;84.12;97856.06;4871813;29;20049;-83
2021/12/02 02:27:13;;;;;;;3.47;1.17;;;;;;;2.87;83.89;97864.69;4875258;29;20438;-83
2021/12/02 02:29:42;;;;;;;3.10;0.83;;;;;;;2.92;82.25;97874.03;4886626;29;20123;-83
2021/12/02 02:32:11;;;;;;;3.53;1.00;;;;;;;2.96;81.90;97867.84;4900989;29;20063;-84
2021/12/02 02:34:38;;;;;;;2.10;0.80;;;;;;;2.97;81.89;97871.28;4886817;29;20063;-84
2021/12/02 02:37:06;;;;;;;5.20;1.40;;;;;;;2.98;80.50;97899.06;4872686;29;20048;-83
2021/12/02 02:39:37;;;;;;;1.93;1.07;;;;;;;2.99;79.13;97887.72;4895996;29;20045;-84
2021/12/02 02:42:08;;;;;;;3.73;1.80;;;;;;;3.02;78.85;97905.88;4908351;29;20071;-83
2021/12/02 02:44:35;;;;;;;4.77;1.37;;;;;;;3.00;79.30;97899.88;4880416;29;20056;-84
2021/12/02 02:47:03;;;;;;;3.00;1.20;;;;;;;3.03;81.01;97923.25;4893336;29;20044;-84
2021/12/02 02:49:31;;;;;;;4.17;1.67;;;;;;;3.07;79.30;97910.03;4906639;29;20063;-82
2021/12/02 02:52:01;;;;;;;2.33;1.27;;;;;;;3.04;77.34;97912.75;4899786;29;20073;-84
2021/12/02 02:54:29;;;;;;;4.43;1.10;;;;;;;3.07;78.46;97930.06;4874356;29;20052;-84
2021/12/02 02:57:02;;;;;;;2.77;1.60;;;;;;;3.08;78.72;97916.09;4897056;29;20124;-84
2021/12/02 02:59:39;;;;;;;6.37;1.20;;;;;;;3.02;77.47;97917.16;4884308;29;20048;-84
2021/12/02 03:02:25;;;;;;;4.20;1.17;;;;;;;3.00;76.19;97934.63;4893178;29;20066;-84
2021/12/02 03:07:59;;;;;;;3.60;0.90;;;;;;;3.06;77.06;97939.63;4913174;29;20167;-84
2021/12/02 03:13:12;;;;;;;3.17;0.80;;;;;;;3.07;75.91;97953.53;4891373;29;19927;-84
2021/12/02 03:18:25;;;;;;;2.47;0.80;;;;;;;2.97;74.59;97949.53;4878959;29;20140;-82
2021/12/02 03:20:51;;;;;;;4.67;1.20;;;;;;;2.96;74.11;97948.69;4885032;29;20044;-83
2021/12/02 03:23:18;;;;;;;3.23;1.10;;;;;;;3.04;75.57;97974.50;4888334;29;20168;-83
2021/12/02 03:28:31;;;;;;;3.40;1.20;;;;;;;3.02;75.74;97986.72;6008576;23;20027;31
2021/12/02 03:31:02;;;;;;;1.30;0.70;;;;;;;2.98;73.81;97996.41;4843641;29;20629;-84
2021/12/02 03:33:29;;;;;;;4.70;1.50;;;;;;;3.01;74.15;97990.25;4877210;29;20152;-83
2021/12/02 03:35:56;;;;;;;3.47;1.00;;;;;;;2.94;71.85;97983.50;4868506;29;20041;-83
2021/12/02 03:38:28;;;;;;;5.53;1.30;;;;;;;2.98;74.06;98006.00;4862924;29;20045;-85
2021/12/02 03:40:55;;;;;;;0.90;0.80;;;;;;;3.01;73.97;98018.94;4867516;29;20053;-82
2021/12/02 03:43:22;;;;;;;3.57;0.83;;;;;;;3.02;72.99;98021.47;4861206;29;20052;-82
2021/12/02 03:45:49;;;;;;;2.40;0.60;;;;;;;2.97;72.54;98028.63;4851604;29;20140;-84
2021/12/02 03:48:16;;;;;;;2.17;0.83;;;;;;;2.96;71.71;98036.50;4936383;23;20045;-81
2021/12/02 03:50:43;;;;;;;1.97;1.03;;;;;;;2.98;72.64;98039.91;4873993;29;20049;-79
2021/12/02 03:53:11;;;;;;;2.23;0.90;;;;;;;2.99;72.23;98026.81;4857276;29;20050;-79
2021/12/02 03:55:38;;;;;;;1.37;1.07;;;;;;;3.00;72.38;98025.03;4847208;29;20464;-79
2021/12/02 03:58:05;;;;;;;2.43;0.93;;;;;;;2.94;73.24;98033.06;4869343;29;20081;-79
2021/12/02 04:00:32;;;;;;;1.60;1.00;;;;;;;2.96;72.04;98041.72;4872947;29;20068;-80
2021/12/02 04:02:59;;;;;;;3.27;1.00;;;;;;;2.96;70.48;98041.72;4847747;29;20052;-80
2021/12/02 04:05:26;;;;;;;1.80;0.70;;;;;;;2.94;72.17;98030.44;4880748;29;20164;-80
2021/12/02 04:07:53;;;;;;;1.33;0.80;;;;;;;2.96;71.62;98053.00;4877796;29;20144;-80
2021/12/02 04:10:22;;;;;;;3.23;0.80;;;;;;;2.87;71.18;98045.47;4853198;29;20050;-80
2021/12/02 04:12:57;;;;;;;4.90;0.90;;;;;;;2.86;72.90;98056.81;4866058;29;20125;-79
2021/12/02 04:15:29;;;;;;;2.80;1.00;;;;;;;2.87;71.26;98060.25;4848535;29;20041;-79
2021/12/02 04:17:57;;;;;;;3.28;1.08;;;;;;;2.85;72.16;98059.44;4873375;29;20117;-80
2021/12/02 04:20:25;;;;;;;2.93;1.53;;;;;;;2.79;70.94;98079.59;4860051;29;20484;-80
2021/12/02 04:22:58;;;;;;;2.80;1.47;;;;;;;2.74;70.26;98078.88;4863916;29;20053;-79
2021/12/02 04:25:26;;;;;;;4.43;1.30;;;;;;;2.83;72.43;98072.53;4863562;29;20132;-80
2021/12/02 04:27:54;;;;;;;3.57;0.90;;;;;;;2.82;70.54;98102.94;4861161;29;20074;-80
2021/12/02 04:30:24;;;;;;;1.73;1.00;;;;;;;2.78;71.33;98110.94;4862052;29;20140;-81
2021/12/02 04:32:52;;;;;;;1.87;0.83;;;;;;;2.80;71.50;98109.97;4866166;29;20050;-79
2021/12/02 04:35:19;;;;;;;1.57;0.80;;;;;;;2.77;70.08;98130.91;4860737;29;20491;-81
2021/12/02 04:37:51;;;;;;;3.13;1.50;;;;;;;2.75;70.68;98129.25;4846675;29;20079;-80
2021/12/02 04:40:20;;;;;;;1.07;0.77;;;;;;;2.75;71.13;98132.72;4845194;29;20530;-82
2021/12/02 04:42:49;;;;;;;2.60;0.80;;;;;;;2.74;71.24;98141.44;4849246;29;20049;-78
2021/12/02 04:45:16;;;;;;;1.60;0.90;;;;;;;2.68;71.01;98112.09;4851118;29;20045;-79
2021/12/02 04:47:43;;;;;;;3.23;0.80;;;;;;;2.68;70.06;98139.00;4851407;29;20070;-79
2021/12/02 04:50:11;;;;;;;3.57;1.10;;;;;;;2.61;69.89;98142.72;4843880;29;20136;-82
2021/12/02 04:52:40;;;;;;;3.87;1.10;;;;;;;2.65;70.39;98154.75;4861907;29;20522;-80
2021/12/02 04:55:08;;;;;;;2.60;1.33;;;;;;;2.66;71.76;98150.38;4863978;29;20049;-80
2021/12/02 04:57:35;;;;;;;2.57;1.57;;;;;;;2.67;71.59;98175.53;4867923;29;20080;-79
2021/12/02 05:00:05;;;;;;;1.97;1.00;;;;;;;2.64;69.88;98166.06;4865556;29;20046;-80
2021/12/02 05:02:33;;;;;;;1.63;1.00;;;;;;;2.64;72.33;98157.41;4846512;29;20545;-82
2021/12/02 05:05:00;;;;;;;1.47;0.80;;;;;;;2.49;70.39;98171.72;4865941;29;20041;-81
2021/12/02 05:07:27;;;;;;;1.17;0.67;;;;;;;2.61;71.88;98186.16;4852962;29;20074;-82
2021/12/02 05:09:54;;;;;;;2.43;0.80;;;;;;;2.56;71.15;98201.91;4863730;29;20528;-81
2021/12/02 05:12:22;;;;;;;2.00;0.90;;;;;;;2.48;69.37;98186.50;4863721;29;20049;-80
2021/12/02 05:14:49;;;;;;;1.33;0.70;;;;;;;2.49;70.68;98201.22;4842236;29;20080;-80
2021/12/02 05:17:16;;;;;;;1.23;0.93;;;;;;;2.44;70.20;98216.16;4860843;29;20038;-81
2021/12/02 05:19:44;;;;;;;1.00;0.70;;;;;;;2.48;70.95;98199.53;4864892;29;20049;-80
2021/12/02 05:22:11;;;;;;;2.73;0.60;;;;;;;2.48;70.70;98198.66;4848647;29;20052;-80
2021/12/02 05:24:38;;;;;;;0.77;0.63;;;;;;;2.41;70.78;98218.81;4848055;29;20063;-80
2021/12/02 05:27:06;;;;;;;2.93;0.83;;;;;;;2.34;70.64;98214.66;4856628;29;20412;-80
2021/12/02 05:29:33;;;;;;;1.33;0.77;;;;;;;2.36;71.42;98227.69;4859206;29;20110;-80
2021/12/02 05:32:01;;;;;;;0.97;0.67;;;;;;;2.39;72.35;98240.63;4863215;29;20061;-80
2021/12/02 05:34:29;;;;;;;0.97;0.80;;;;;;;2.36;71.62;98230.28;4857439;29;20241;-80
2021/12/02 05:36:56;;;;;;;5.47;1.00;;;;;;;2.32;71.14;98232.09;4877383;29;20163;-80
2021/12/02 05:39:24;;;;;;;1.07;0.60;;;;;;;2.24;70.82;98224.47;4861489;29;20456;-80
2021/12/02 05:41:53;;;;;;;2.83;0.90;;;;;;;2.24;71.44;98244.47;4874710;29;20075;-80
2021/12/02 05:44:21;;;;;;;0.90;0.70;;;;;;;2.24;72.58;98260.94;4865845;29;20529;-79
2021/12/02 05:46:49;;;;;;;1.73;0.57;;;;;;;2.21;72.59;98245.41;4850820;29;20053;-81
2021/12/02 05:49:18;;;;;;;1.33;0.80;;;;;;;2.25;73.13;98252.22;4866078;29;20133;-80
2021/12/02 05:51:46;;;;;;;1.87;0.70;;;;;;;2.18;72.73;98239.41;4843784;29;20049;-80
2021/12/02 05:54:13;;;;;;;1.37;0.67;;;;;;;2.09;72.69;98245.69;4849341;29;20110;-80
2021/12/02 05:56:40;;;;;;;2.10;1.10;;;;;;;2.04;72.55;98271.03;4854671;29;20097;-80
2021/12/02 05:59:08;;;;;;;2.43;0.90;;;;;;;2.07;72.80;98272.69;4851592;29;20052;-80
2021/12/02 06:01:37;;;;;;;2.70;1.00;;;;;;;2.06;72.88;98276.19;4870743;29;20078;-80
2021/12/02 06:04:05;;;;;;;0.53;0.50;;;;;;;2.03;73.54;98271.91;4868287;29;20041;-80
2021/12/02 06:06:33;;;;;;;2.57;0.70;;;;;;;2.03;72.93;98274.53;4873699;29;20041;-81
2021/12/02 06:09:00;;;;;;;1.37;0.80;;;;;;;1.97;72.99;98279.88;4839172;29;20048;-80
2021/12/02 06:11:27;;;;;;;1.30;0.70;;;;;;;1.97;73.74;98295.50;4865727;29;20137;-79
2021/12/02 06:13:56;;;;;;;2.53;0.90;;;;;;;1.91;73.53;98319.91;4856709;29;20052;-84
2021/12/02 06:16:22;;;;;;;3.73;0.80;;;;;;;1.92;74.21;98318.16;4885108;29;20041;-79
2021/12/02 06:18:49;;;;;;;0.60;0.57;;;;;;;1.92;73.50;98326.81;4867984;29;20046;-81
2021/12/02 06:21:16;;;;;;;1.80;0.57;;;;;;;1.87;74.47;98333.06;4854376;29;20049;-82
2021/12/02 06:23:43;;;;;;;1.30;0.53;;;;;;;1.82;74.31;98329.69;4862101;29;20060;-81
2021/12/02 06:26:10;;;;;;;1.17;0.67;;;;;;;1.75;73.40;98333.31;4873669;29;20084;-83
2021/12/02 06:28:41;;;;;;;0.50;0.50;;;;;;;1.81;74.05;98341.00;4870222;29;20036;-79
2021/12/02 06:31:13;;;;;;;2.00;0.60;;;;;;;1.72;72.84;98349.88;4870214;29;20041;-82
2021/12/02 06:33:41;;;;;;;3.10;0.60;;;;;;;1.74;73.99;98360.25;4872989;29;20083;-80
2021/12/02 06:36:09;;;;;;;2.07;0.70;;;;;;;1.76;74.92;98358.44;4876450;29;20053;-81
2021/12/02 06:38:56;;;;;;;0.67;0.67;;;;;;;1.77;74.86;98354.97;4851624;29;20046;-81
2021/12/02 06:41:25;;;;;;;1.73;1.03;;;;;;;1.77;74.47;98353.25;4868394;29;20096;-80
2021/12/02 06:44:06;;;;;;;3.80;0.60;;;;;;;1.79;74.44;98363.59;4875695;29;20049;-80
2021/12/02 06:46:35;;;;;;;0.83;0.53;;;;;;;1.71;74.34;98374.19;4875146;29;20111;-80
2021/12/02 06:49:10;;;;;;;0.70;0.50;;;;;;;1.61;75.39;98396.09;4878404;29;20041;-79
2021/12/02 06:51:43;;;;;;;0.77;0.60;;;;;;;1.66;75.30;98394.25;4877022;29;20060;-80
2021/12/02 06:54:11;;;;;;;0.87;0.60;;;;;;;1.65;75.79;98393.38;4845824;29;20065;-80
2021/12/02 06:57:01;;;;;;;1.03;0.53;;;;;;;1.61;74.65;98399.56;4863715;29;20074;-81
2021/12/02 06:59:45;;;;;;;0.80;0.67;;;;;;;1.66;75.76;98410.72;4864667;29;20350;-80
2021/12/02 07:02:24;;;;;;;1.73;0.83;;;;;;;1.68;76.32;98408.94;4852800;29;20049;-80
2021/12/02 07:04:53;;;;;;;0.90;0.80;;;;;;;1.71;74.83;98422.78;4855880;29;20045;-80
2021/12/02 07:07:20;;;;;;;2.03;0.90;;;;;;;1.69;77.00;98415.88;4875230;29;20069;-80
2021/12/02 07:09:51;;;;;;;2.33;0.73;;;;;;;1.67;74.90;98432.38;4858188;29;20064;-80
2021/12/02 07:12:29;;;;;;;2.50;0.87;;;;;;;1.66;76.25;98430.69;4863428;29;20057;-80
2021/12/02 07:14:58;;;;;;;1.37;0.70;;;;;;;1.64;75.18;98438.53;4853840;29;20143;-79
2021/12/02 07:17:28;;;;;;;3.43;0.97;;;;;;;1.64;76.28;98455.88;4853423;29;20088;-79
2021/12/02 07:19:55;;;;;;;2.03;1.20;;;;;;;1.65;76.56;98449.78;4858619;29;20049;-79
2021/12/02 07:22:24;;;;;;;1.80;1.30;;;;;;;1.63;76.46;98465.44;4868353;29;20045;-79
2021/12/02 07:24:53;;;;;;;4.03;2.63;;;;;;;1.61;75.38;98461.16;4850895;29;20049;-79
2021/12/02 07:27:21;;;;;;;9.27;5.77;;;;;;;1.55;75.71;98469.06;4851253;29;20055;-80
2021/12/02 07:29:48;;;;;;;10.67;7.13;;;;;;;1.44;75.13;98481.44;4869572;29;20057;-80
2021/12/02 07:32:15;;;;;;;4.63;1.80;;;;;;;1.35;75.36;98470.31;4869437;29;20041;-79
2021/12/02 07:34:44;;;;;;;3.70;1.97;;;;;;;1.50;76.85;98476.97;4867140;29;20048;-80
2021/12/02 07:37:15;;;;;;;7.17;4.13;;;;;;;1.50;75.54;98483.91;4869089;29;20390;-79
2021/12/02 07:39:43;;;;;;;2.30;0.80;;;;;;;1.39;75.32;98481.50;4863466;29;20045;-80
2021/12/02 07:42:25;;;;;;;1.40;1.07;;;;;;;1.39;75.93;98465.91;4867051;29;20076;-80
2021/12/02 07:44:55;;;;;;;1.20;0.80;;;;;;;1.43;75.34;98472.78;4850700;29;20052;-79
2021/12/02 07:47:30;;;;;;;1.37;0.93;;;;;;;1.44;75.38;98489.25;4856128;29;20048;-79
2021/12/02 07:50:01;;;;;;;1.37;1.10;;;;;;;1.42;76.21;98489.25;4853698;29;20053;-80
2021/12/02 07:52:31;;;;;;;30.33;16.27;;;;;;;1.42;76.30;98505.72;4869224;29;20052;-79
2021/12/02 07:55:06;;;;;;;10.40;6.40;;;;;;;1.43;77.45;98509.22;4855892;29;20053;-79
2021/12/02 07:57:37;;;;;;;2.13;1.33;;;;;;;1.43;77.32;98511.81;4864682;29;20045;-80
2021/12/02 08:00:08;;;;;;;2.57;2.13;;;;;;;1.37;76.31;98517.97;4862780;29;20072;-79
2021/12/02 08:02:36;;;;;;;4.10;3.80;;;;;;;1.38;77.17;98508.41;4869818;29;20049;-79
2021/12/02 08:05:05;;;;;;;2.90;2.50;;;;;;;1.42;77.05;98517.88;4865803;29;20049;-80
2021/12/02 08:07:33;;;;;;;1.70;1.40;;;;;;;1.46;77.96;98526.50;4870260;29;20553;-80
2021/12/02 08:10:01;;;;;;;2.30;2.10;;;;;;;1.39;76.37;98520.53;4849246;29;20060;-79
2021/12/02 08:12:28;;;;;;;1.13;0.80;;;;;;;1.41;76.31;98527.41;4866536;29;20050;-80
2021/12/02 08:14:58;;;;;;;1.67;1.30;;;;;;;1.44;77.42;98533.47;4874448;29;20044;-81
2021/12/02 08:17:25;;;;;;;2.07;0.90;;;;;;;1.48;77.15;98535.97;4845168;29;20073;-81
2021/12/02 08:19:52;;;;;;;1.93;0.73;;;;;;;1.50;77.31;98536.81;4858406;29;20081;-81
2021/12/02 08:22:21;;;;;;;2.33;1.07;;;;;;;1.55;77.44;98549.75;4868568;29;20045;-79
2021/12/02 08:24:47;;;;;;;2.10;1.30;;;;;;;1.53;77.84;98562.78;4852947;29;20041;-82
2021/12/02 08:27:14;;;;;;;3.07;1.50;;;;;;;1.54;77.40;98568.84;4858541;29;20060;-82
2021/12/02 08:29:45;;;;;;;2.17;1.97;;;;;;;1.54;76.49;98561.91;4862758;29;20045;-81
2021/12/02 08:32:12;;;;;;;1.43;0.87;;;;;;;1.62;77.36;98580.00;4843587;29;20067;-80
2021/12/02 08:34:39;;;;;;;2.17;1.10;;;;;;;1.55;76.52;98580.97;4841952;29;20144;-80
2021/12/02 08:37:08;;;;;;;1.60;1.10;;;;;;;1.45;76.90;98558.59;4845117;29;20077;-80
2021/12/02 08:39:35;;;;;;;2.30;1.40;;;;;;;1.53;77.10;98577.56;4844303;29;20632;-81
2021/12/02 08:42:03;;;;;;;2.30;1.80;;;;;;;1.55;76.88;98578.38;4846169;29;20179;-81
2021/12/02 08:44:31;;;;;;;1.50;1.23;;;;;;;1.64;76.71;98592.09;4848346;29;20076;-80
2021/12/02 08:46:58;;;;;;;2.30;1.23;;;;;;;1.60;76.72;98600.00;4851688;29;20101;-81
2021/12/02 08:49:25;;;;;;;1.73;1.00;;;;;;;1.70;77.42;98609.34;4858425;29;20041;-80
2021/12/02 08:51:52;;;;;;;0.97;0.90;;;;;;;1.67;76.67;98601.56;4857981;29;20041;-80
2021/12/02 08:54:19;;;;;;;1.97;1.07;;;;;;;1.72;77.85;98607.56;4855078;29;20128;-80
2021/12/02 08:56:46;;;;;;;2.87;1.30;;;;;;;1.82;77.10;98621.28;4856903;29;20076;-81
2021/12/02 08:59:14;;;;;;;2.00;0.70;;;;;;;1.89;76.78;98630.69;4854987;29;20117;-81
2021/12/02 09:01:41;;;;;;;1.40;0.83;;;;;;;1.85;75.45;98631.63;4856543;29;20432;-80
2021/12/02 09:04:08;;;;;;;1.40;1.00;;;;;;;1.81;76.57;98635.19;4855124;29;20068;-80
2021/12/02 09:06:35;;;;;;;2.23;1.00;;;;;;;1.84;76.67;98645.53;4861078;29;20053;-81
2021/12/02 09:09:02;;;;;;;4.37;2.13;;;;;;;1.94;76.80;98644.50;4857101;29;20050;-80
2021/12/02 09:11:31;;;;;;;1.00;0.90;;;;;;;1.88;74.65;98648.06;4856959;29;20120;-80
2021/12/02 09:13:58;;;;;;;0.83;0.70;;;;;;;1.97;75.53;98647.91;4855559;29;20133;-81
2021/12/02 09:16:26;;;;;;;1.07;0.70;;;;;;;2.02;76.12;98647.81;4850006;29;20554;-81
2021/12/02 09:18:54;;;;;;;2.23;0.90;;;;;;;2.07;75.82;98655.53;4844616;29;20041;-81
2021/12/02 09:21:21;;;;;;;2.13;1.10;;;;;;;2.03;74.59;98659.09;4857622;29;20400;-81
2021/12/02 09:24:11;;;;;;;1.13;0.73;;;;;;;2.10;75.43;98676.31;4859522;29;20048;-82
2021/12/02 09:26:48;;;;;;;2.07;1.20;;;;;;;2.18;76.15;98666.59;4865674;29;20053;-81
2021/12/02 09:29:17;;;;;;;1.13;0.63;;;;;;;2.22;75.77;98666.53;4862398;29;20057;-82
2021/12/02 09:31:44;;;;;;;1.63;0.90;;;;;;;2.26;75.84;98676.00;4867213;29;20481;-81
2021/12/02 09:34:12;;;;;;;2.67;1.30;;;;;;;2.18;75.92;98677.03;4847253;29;20049;-81
2021/12/02 09:36:39;;;;;;;1.00;0.70;;;;;;;2.17;75.34;98683.13;4852730;29;20049;-81
2021/12/02 09:39:07;;;;;;;2.00;1.43;;;;;;;2.17;76.14;98686.59;4858997;29;20054;-81
2021/12/02 09:41:35;;;;;;;1.80;1.00;;;;;;;2.14;75.32;98699.69;4860801;29;20053;-81
2021/12/02 09:44:03;;;;;;;1.33;0.73;;;;;;;2.22;74.15;98704.75;4860507;29;20053;-81
2021/12/02 09:46:30;;;;;;;1.63;0.90;;;;;;;2.17;75.13;98697.00;4856668;29;20073;-81
2021/12/02 09:49:00;;;;;;;3.23;1.77;;;;;;;2.26;76.39;98712.47;4845503;29;20128;-81
2021/12/02 09:51:32;;;;;;;2.13;1.60;;;;;;;2.29;73.67;98714.19;4855595;29;20521;-81
2021/12/02 09:54:23;;;;;;;1.90;1.20;;;;;;;2.43;75.59;98713.91;4858048;29;20045;-81
2021/12/02 09:56:53;;;;;;;2.53;1.07;;;;;;;2.44;74.16;98716.50;4845890;29;20087;-80
2021/12/02 09:59:25;;;;;;;2.20;1.00;;;;;;;2.36;74.05;98717.53;4854668;29;20496;-80
2021/12/02 10:01:58;;;;;;;2.30;1.50;;;;;;;2.32;73.37;98740.16;4862567;29;20451;-81
2021/12/02 10:04:27;;;;;;;2.03;1.05;;;;;;;2.25;74.63;98722.94;4862180;29;20065;-82
2021/12/02 10:07:18;;;;;;;2.33;1.10;;;;;;;2.40;75.91;98724.41;4848465;29;20053;-81
2021/12/02 10:09:58;;;;;;;2.70;0.80;;;;;;;2.63;75.17;98719.63;4870048;29;20053;-82
2021/12/02 10:12:29;;;;;;;1.43;1.00;;;;;;;2.71;73.79;98728.16;4877820;29;20064;-80
2021/12/02 10:15:13;;;;;;;3.53;0.90;;;;;;;2.72;73.50;98742.91;4858765;29;20059;-83
2021/12/02 10:17:50;;;;;;;2.73;1.20;;;;;;;2.80;74.40;98719.28;4870160;29;20049;-81
2021/12/02 10:20:34;;;;;;;4.73;1.67;;;;;;;2.70;73.17;98733.41;4851627;29;20136;-82
2021/12/02 10:23:30;;;;;;;1.45;0.90;;;;;;;2.71;73.34;98735.97;4851002;29;20131;-82
2021/12/02 10:26:01;;;;;;;2.17;1.00;;;;;;;2.90;73.17;98730.38;4865365;29;20482;-82
2021/12/02 10:28:30;;;;;;;3.40;1.00;;;;;;;2.95;72.88;98737.22;4849419;29;20076;-81
2021/12/02 10:31:00;;;;;;;0.63;0.60;;;;;;;3.05;73.03;98737.91;4874694;29;20041;-81
2021/12/02 10:33:34;;;;;;;2.83;0.87;;;;;;;3.16;72.19;98741.13;4864631;29;20069;-84
2021/12/02 10:36:01;;;;;;;;;;;;;;;2.79;71.11;98754.94;4876599;29;20053;-82
2021/12/02 10:38:44;;;;;;;4.73;1.70;;;;;;;3.04;72.39;98757.91;4857945;29;19993;-83
2021/12/02 10:41:24;;;;;;;2.00;0.90;;;;;;;2.91;70.89;98743.38;4859927;29;20132;-83
2021/12/02 10:44:02;;;;;;;3.17;1.00;;;;;;;3.04;71.76;98754.44;4861398;29;20088;-82
2021/12/02 10:46:28;;;;;;;1.10;0.97;;;;;;;3.16;72.11;98759.38;4867739;29;20045;-81
2021/12/02 10:48:55;;;;;;;2.23;1.00;;;;;;;3.21;71.85;98757.56;4859615;29;20382;-79
2021/12/02 10:51:45;;;;;;;2.43;1.67;;;;;;;3.37;72.21;98755.47;4863127;29;20069;-82
2021/12/02 10:54:23;;;;;;;3.80;2.27;;;;;;;3.39;71.75;98759.75;4855771;29;20094;-83
2021/12/02 10:56:52;;;;;;;5.57;2.60;;;;;;;3.42;71.33;98771.88;4860223;29;20088;-83
2021/12/02 10:59:34;;;;;;;8.90;6.20;;;;;;;3.45;70.83;98776.16;4856019;29;20109;-83
2021/12/02 11:02:03;;;;;;;3.43;1.30;;;;;;;3.43;70.03;98770.97;4862699;29;20678;-83
2021/12/02 11:04:36;;;;;;;1.30;1.00;;;;;;;3.37;72.96;98773.75;4863051;29;20062;-82
2021/12/02 11:07:05;;;;;;;1.27;1.00;;;;;;;3.51;71.53;98773.44;4860713;29;20449;-82
2021/12/02 11:09:33;;;;;;;3.13;1.30;;;;;;;3.52;72.13;98782.97;4860494;29;20068;-82
2021/12/02 11:12:16;;;;;;;2.17;1.00;;;;;;;3.42;72.32;98782.31;4861156;29;20070;-83
2021/12/02 11:15:11;;;;;;;9.60;4.97;;;;;;;3.27;72.33;98791.31;4844354;29;20494;-81
2021/12/02 11:18:05;;;;;;;2.20;1.48;;;;;;;3.23;72.98;98802.75;4859962;29;20048;-82
2021/12/02 11:20:40;;;;;;;2.22;1.23;;;;;;;3.03;72.94;98805.75;4854797;29;20057;-83
2021/12/02 11:23:14;;;;;;;4.00;2.63;;;;;;;2.78;74.43;98810.59;4858271;29;20140;-82
2021/12/02 11:25:56;;;;;;;2.80;1.60;;;;;;;2.70;74.62;98816.84;4865954;29;20045;-82
2021/12/02 11:28:26;;;;;;;2.00;1.07;;;;;;;2.77;75.98;98829.69;4856581;29;20141;-81
2021/12/02 11:30:57;;;;;;;2.37;1.10;;;;;;;2.69;74.49;98834.22;4859074;29;20144;-82
2021/12/02 11:33:37;;;;;;;3.10;2.07;;;;;;;2.68;76.02;98837.69;4855385;29;20105;-82
2021/12/02 11:36:05;;;;;;;2.40;1.30;;;;;;;2.66;76.51;98836.00;4856319;29;20045;-83
2021/12/02 11:38:33;;;;;;;3.50;2.53;;;;;;;2.62;76.25;98840.44;4861665;29;20042;-83
2021/12/02 11:41:02;;;;;;;3.03;1.10;;;;;;;2.65;77.96;98855.16;4871319;29;20056;-81
2021/12/02 11:43:39;;;;;;;3.90;1.50;;;;;;;2.58;76.52;98846.56;4867347;29;20148;-82
2021/12/02 11:46:08;;;;;;;2.63;1.90;;;;;;;2.37;76.13;98845.19;4872384;29;20047;-82
2021/12/02 11:48:38;;;;;;;2.40;1.20;;;;;;;2.48;77.99;98847.63;4862276;29;20053;-83
2021/12/02 11:51:14;;;;;;;1.73;0.97;;;;;;;2.47;76.65;98857.19;4850486;29;20041;-83
2021/12/02 11:53:48;;;;;;;2.57;2.03;;;;;;;2.24;79.11;98859.28;4864176;29;20107;-82
2021/12/02 11:56:20;;;;;;;3.90;3.37;;;;;;;2.29;77.96;98854.88;4854675;29;20049;-83
2021/12/02 11:58:50;;;;;;;4.13;2.80;;;;;;;2.26;78.66;98866.19;4853321;29;20057;-83
2021/12/02 12:01:20;;;;;;;2.53;1.43;;;;;;;2.23;78.10;98868.88;4870377;29;20045;-81
2021/12/02 12:03:56;;;;;;;15.67;10.40;;;;;;;2.20;78.47;98887.16;4853584;29;20049;-82
2021/12/02 12:06:27;;;;;;;3.73;2.13;;;;;;;2.29;79.07;98878.34;4866349;29;20053;-82
2021/12/02 12:09:03;;;;;;;3.63;1.40;;;;;;;2.29;78.90;98882.69;4864020;29;20041;-83
2021/12/02 12:11:35;;;;;;;2.93;1.33;;;;;;;2.36;78.67;98882.56;4863653;29;20435;-82
2021/12/02 12:14:08;;;;;;;1.73;1.10;;;;;;;2.37;78.21;98886.03;4844976;29;20085;-82
2021/12/02 12:16:45;;;;;;;4.93;2.00;;;;;;;2.37;78.95;98889.50;4844943;29;20107;-81